createdAt,value
2024-02-07T00:02:31.024Z,9.37
2024-02-07T00:05:33.708Z,9.26
2024-02-07T00:08:36.381Z,9.24
2024-02-07T00:11:38.803Z,9.28
2024-02-07T00:14:40.974Z,9.23
2024-02-07T00:17:43.243Z,9.07
2024-02-07T00:20:46.004Z,9.05
2024-02-07T00:23:48.172Z,8.98
2024-02-07T00:26:50.377Z,8.82
2024-02-07T00:29:52.688Z,8.75
2024-02-07T00:32:55.095Z,8.59
2024-02-07T00:35:57.308Z,8.52
2024-02-07T00:39:00.874Z,8.45
2024-02-07T00:42:03.106Z,8.39
2024-02-07T00:45:06.016Z,8.34
2024-02-07T00:48:08.588Z,8.34
2024-02-07T00:51:11.132Z,8.29
2024-02-07T00:54:19.293Z,8.29
2024-02-07T00:57:21.455Z,8.28
2024-02-07T01:00:25.552Z,8.20
2024-02-07T01:03:28.094Z,8.09
2024-02-07T01:06:35.213Z,8.10
2024-02-07T01:09:37.840Z,8.17
2024-02-07T01:12:40.127Z,8.18
2024-02-07T01:15:44.846Z,8.28
2024-02-07T01:18:50.579Z,8.40
2024-02-07T01:21:53.401Z,8.32
2024-02-07T01:24:56.692Z,8.32
2024-02-07T01:27:58.975Z,8.20
2024-02-07T01:31:01.235Z,8.20
2024-02-07T01:34:03.710Z,8.10
2024-02-07T01:37:06.876Z,8.02
2024-02-07T01:40:11.943Z,8.08
2024-02-07T01:43:14.541Z,8.10
2024-02-07T01:46:17.315Z,8.14
2024-02-07T01:49:20.280Z,8.12
2024-02-07T01:52:25.289Z,8.06
2024-02-07T01:55:30.235Z,7.99
2024-02-07T01:58:32.509Z,7.92
2024-02-07T02:01:35.645Z,7.83
2024-02-07T02:04:38.799Z,7.67
2024-02-07T02:07:42.294Z,7.58
2024-02-07T02:10:44.910Z,7.51
2024-02-07T02:13:48.035Z,7.55
2024-02-07T02:16:50.291Z,7.57
2024-02-07T02:19:52.874Z,7.47
2024-02-07T02:23:07.227Z,7.47
2024-02-07T02:26:15.541Z,7.48
2024-02-07T02:29:22.758Z,7.50
2024-02-07T02:32:27.191Z,7.54
2024-02-07T02:35:33.420Z,7.61
2024-02-07T02:38:39.037Z,7.67
2024-02-07T02:41:41.385Z,7.67
2024-02-07T02:44:43.664Z,7.68
2024-02-07T02:47:47.289Z,7.63
2024-02-07T02:50:50.135Z,7.62
2024-02-07T02:53:54.207Z,7.59
2024-02-07T02:57:01.373Z,7.61
2024-02-07T03:00:08.178Z,7.59
2024-02-07T03:03:11.198Z,7.55
2024-02-07T03:06:30.294Z,7.69
2024-02-07T03:09:34.453Z,7.68
2024-02-07T03:12:37.336Z,7.58
2024-02-07T03:15:40.563Z,7.18
2024-02-07T03:18:44.586Z,7.14
2024-02-07T03:21:48.073Z,7.04
2024-02-07T03:24:57.097Z,7.02
2024-02-07T03:27:59.548Z,6.94
2024-02-07T03:31:01.903Z,6.76
2024-02-07T03:34:04.640Z,6.70
2024-02-07T03:37:07.053Z,6.68
2024-02-07T03:40:16.544Z,6.65
2024-02-07T03:43:22.095Z,6.68
2024-02-07T03:46:25.437Z,6.67
2024-02-07T03:49:30.802Z,6.68
2024-02-07T03:52:36.020Z,6.64
2024-02-07T03:55:39.388Z,6.58
2024-02-07T03:58:44.370Z,6.59
2024-02-07T04:01:47.018Z,6.57
2024-02-07T04:04:57.485Z,6.65
2024-02-07T04:08:05.177Z,6.52
2024-02-07T04:11:11.772Z,6.53
2024-02-07T04:14:14.225Z,6.45
2024-02-07T04:17:35.325Z,6.43
2024-02-07T04:20:56.275Z,6.53
2024-02-07T04:24:18.918Z,6.56
2024-02-07T04:27:42.153Z,6.54
2024-02-07T04:31:03.856Z,6.54
2024-02-07T04:34:30.542Z,6.48
2024-02-07T04:37:52.425Z,6.54
2024-02-07T04:41:13.968Z,6.45
2024-02-07T04:44:38.524Z,6.67
2024-02-07T04:48:01.148Z,6.56
2024-02-07T04:51:36.979Z,6.58
2024-02-07T04:55:01.430Z,6.41
2024-02-07T04:58:22.533Z,6.52
2024-02-07T05:01:44.156Z,6.37
2024-02-07T05:05:04.998Z,6.48
2024-02-07T05:12:04.331Z,6.52
2024-02-07T05:15:06.821Z,6.52
2024-02-07T05:18:09.994Z,6.50
2024-02-07T05:21:17.549Z,6.38
2024-02-07T05:24:21.137Z,6.43
2024-02-07T05:27:33.025Z,6.50
2024-02-07T05:30:41.740Z,6.48
2024-02-07T05:33:57.002Z,6.51
2024-02-07T05:37:10.413Z,6.51
2024-02-07T05:40:16.686Z,6.47
2024-02-07T05:43:29.934Z,6.44
2024-02-07T05:46:46.788Z,6.51
2024-02-07T05:49:59.569Z,6.18
2024-02-07T05:53:02.503Z,6.34
2024-02-07T05:56:09.753Z,6.37
2024-02-07T05:59:20.838Z,6.39
2024-02-07T06:02:25.583Z,6.40
2024-02-07T06:05:28.890Z,6.42
2024-02-07T06:08:36.975Z,6.26
2024-02-07T06:11:43.470Z,6.31
2024-02-07T06:14:47.557Z,6.45
2024-02-07T06:17:51.424Z,6.48
2024-02-07T06:20:55.248Z,6.30
2024-02-07T06:24:20.673Z,6.48
2024-02-07T06:27:34.054Z,6.23
2024-02-07T06:30:45.580Z,6.37
2024-02-07T06:34:06.240Z,6.28
2024-02-07T06:37:13.057Z,6.26
2024-02-07T06:40:26.615Z,6.15
2024-02-07T06:43:31.772Z,5.93
2024-02-07T06:46:39.517Z,5.80
2024-02-07T06:50:10.525Z,5.69
2024-02-07T06:53:27.507Z,5.62
2024-02-07T06:56:51.396Z,5.63
2024-02-07T07:09:34.970Z,5.59
2024-02-07T07:40:57.100Z,6.02
2024-02-07T08:22:31.108Z,7.05
2024-02-07T08:30:14.976Z,7.31
2024-02-07T08:48:45.460Z,7.68
2024-02-07T08:52:05.448Z,7.71
2024-02-07T09:28:04.332Z,8.66
2024-02-07T09:46:16.355Z,9.06
2024-02-07T10:24:54.721Z,9.92
2024-02-07T10:28:08.335Z,10.08
2024-02-07T10:31:14.524Z,10.10
2024-02-07T10:34:26.103Z,10.23
2024-02-07T10:37:42.192Z,10.21
2024-02-07T10:40:46.008Z,10.44
2024-02-07T10:43:55.943Z,10.56
2024-02-07T10:47:01.497Z,10.49
2024-02-07T10:50:13.526Z,10.61
2024-02-07T10:53:16.493Z,10.78
2024-02-07T10:56:26.884Z,10.70
2024-02-07T11:13:27.814Z,11.17
2024-02-07T12:37:32.350Z,12.49
2024-02-07T12:41:11.985Z,12.47
2024-02-07T12:44:29.012Z,12.42
2024-02-07T12:58:19.106Z,13.32
2024-02-07T13:01:58.696Z,13.24
2024-02-07T13:05:02.293Z,13.10
2024-02-07T13:08:15.295Z,13.26
2024-02-07T13:21:15.970Z,13.58
2024-02-07T13:25:07.204Z,13.52
2024-02-07T13:28:26.764Z,13.58
2024-02-07T13:31:37.041Z,13.60
2024-02-07T13:34:52.779Z,13.55
2024-02-07T13:38:01.910Z,13.51
2024-02-07T13:41:37.054Z,13.34
2024-02-07T13:44:41.738Z,13.51
2024-02-07T13:47:47.943Z,13.46
2024-02-07T13:50:52.421Z,13.45
2024-02-07T13:53:58.168Z,13.45
2024-02-07T13:57:15.660Z,13.43
2024-02-07T14:00:27.637Z,13.32
2024-02-07T14:03:36.680Z,13.22
2024-02-07T14:06:41.152Z,13.26
2024-02-07T14:09:45.459Z,13.25
2024-02-07T14:12:49.635Z,13.20
2024-02-07T14:15:58.303Z,13.16
2024-02-07T14:19:01.364Z,13.15
2024-02-07T14:22:04.928Z,13.10
2024-02-07T14:25:13.966Z,13.10
2024-02-07T14:28:16.778Z,13.06
2024-02-07T14:31:22.961Z,13.08
2024-02-07T14:34:25.966Z,13.07
2024-02-07T14:37:29.310Z,12.96
2024-02-07T14:40:35.047Z,12.84
2024-02-07T14:43:38.220Z,12.75
2024-02-07T14:46:41.778Z,12.86
2024-02-07T14:49:44.727Z,12.89
2024-02-07T14:52:50.446Z,12.79
2024-02-07T14:55:59.942Z,12.89
2024-02-07T14:59:07.153Z,12.84
2024-02-07T15:02:14.022Z,12.78
2024-02-07T15:05:17.272Z,12.78
2024-02-07T15:08:23.275Z,12.72
2024-02-07T15:11:27.252Z,12.78
2024-02-07T15:14:33.040Z,12.47
2024-02-07T15:17:35.982Z,12.50
2024-02-07T15:20:41.976Z,12.33
2024-02-07T15:23:44.777Z,12.39
2024-02-07T15:26:55.170Z,12.31
2024-02-07T15:30:05.124Z,12.21
2024-02-07T15:33:08.178Z,12.15
2024-02-07T15:36:15.287Z,11.95
2024-02-07T15:39:18.921Z,11.94
2024-02-07T15:42:26.757Z,11.93
2024-02-07T15:45:30.226Z,11.83
2024-02-07T15:48:47.529Z,11.71
2024-02-07T15:51:53.717Z,11.66
2024-02-07T15:54:57.705Z,11.65
2024-02-07T15:58:03.545Z,11.64
2024-02-07T16:01:10.099Z,11.66
2024-02-07T16:04:17.874Z,11.56
2024-02-07T16:07:30.882Z,11.51
2024-02-07T16:10:33.707Z,11.44
2024-02-07T16:13:40.213Z,11.34
2024-02-07T16:16:46.956Z,11.39
2024-02-07T16:19:54.968Z,11.16
2024-02-07T16:22:58.589Z,11.25
2024-02-07T16:26:04.308Z,11.12
2024-02-07T16:29:13.752Z,10.96
2024-02-07T16:32:22.423Z,11.08
2024-02-07T16:35:25.838Z,10.93
2024-02-07T16:38:31.870Z,11.14
2024-02-07T16:41:37.391Z,11.05
2024-02-07T16:44:43.628Z,11.10
2024-02-07T16:47:53.842Z,11.10
2024-02-07T16:51:00.561Z,11.11
2024-02-07T16:54:04.705Z,11.12
2024-02-07T16:57:18.246Z,11.18
2024-02-07T17:00:23.933Z,11.05
2024-02-07T17:03:26.453Z,10.95
2024-02-07T17:06:35.252Z,11.06
2024-02-07T17:09:40.377Z,11.03
2024-02-07T17:12:45.702Z,10.82
2024-02-07T17:15:49.157Z,10.81
2024-02-07T17:19:00.589Z,10.78
2024-02-07T17:22:04.385Z,10.76
2024-02-07T17:25:08.726Z,10.83
2024-02-07T17:28:12.125Z,10.69
2024-02-07T17:31:14.942Z,10.60
2024-02-07T17:34:18.082Z,10.61
2024-02-07T17:37:26.164Z,10.56
2024-02-07T17:40:28.758Z,10.45
2024-02-07T17:43:47.649Z,10.57
2024-02-07T17:46:54.131Z,10.56
2024-02-07T17:49:57.078Z,10.67
2024-02-07T17:53:00.921Z,10.61
2024-02-07T17:56:14.076Z,10.69
2024-02-07T17:59:17.196Z,10.76
2024-02-07T18:02:22.332Z,10.93
2024-02-07T18:05:27.083Z,10.97
2024-02-07T18:08:29.911Z,11.05
2024-02-07T18:11:34.015Z,11.01
2024-02-07T18:14:36.362Z,11.00
2024-02-07T18:17:39.810Z,10.68
2024-02-07T18:20:42.177Z,10.55
2024-02-07T18:23:47.544Z,10.48
2024-02-07T18:26:50.826Z,10.25
2024-02-07T18:29:53.165Z,10.34
2024-02-07T18:32:55.755Z,10.15
2024-02-07T18:35:58.804Z,10.47
2024-02-07T18:39:01.578Z,10.55
2024-02-07T18:42:03.935Z,10.59
2024-02-07T18:45:07.318Z,10.54
2024-02-07T18:48:10.392Z,10.47
2024-02-07T18:51:13.374Z,10.48
2024-02-07T18:54:21.034Z,10.56
2024-02-07T18:57:23.907Z,10.54
2024-02-07T19:00:26.379Z,10.38
2024-02-07T19:03:30.365Z,10.34
2024-02-07T19:06:33.016Z,10.29
2024-02-07T19:09:36.180Z,10.28
2024-02-07T19:12:38.767Z,10.25
2024-02-07T19:15:42.864Z,10.30
2024-02-07T19:18:45.262Z,10.17
2024-02-07T19:21:49.329Z,10.06
2024-02-07T19:24:54.535Z,10.11
2024-02-07T19:27:59.968Z,10.03
2024-02-07T19:31:02.437Z,10.03
2024-02-07T19:34:05.145Z,10.17
2024-02-07T19:37:07.650Z,10.06
2024-02-07T19:40:11.077Z,10.05
2024-02-07T19:43:14.049Z,10.03
2024-02-07T19:46:16.702Z,10.13
2024-02-07T19:49:19.552Z,10.15
2024-02-07T19:52:22.555Z,10.15
2024-02-07T19:55:25.581Z,10.15
2024-02-07T19:58:28.756Z,10.18
2024-02-07T20:01:31.682Z,10.13
2024-02-07T20:04:38.071Z,10.15
2024-02-07T20:07:41.076Z,10.11
2024-02-07T20:10:44.122Z,10.16
2024-02-07T20:13:46.723Z,10.13
2024-02-07T20:16:49.431Z,10.19
2024-02-07T20:19:51.997Z,10.30
2024-02-07T20:22:54.963Z,10.34
2024-02-07T20:26:05.467Z,10.39
2024-02-07T20:29:09.553Z,10.47
2024-02-07T20:32:12.823Z,10.42
2024-02-07T20:35:16.193Z,10.41
2024-02-07T20:38:18.560Z,10.34
2024-02-07T20:41:21.650Z,10.45
2024-02-07T20:44:25.453Z,10.32
2024-02-07T20:47:29.091Z,10.41
2024-02-07T20:50:32.133Z,10.33
2024-02-07T20:53:34.547Z,10.28
2024-02-07T20:56:42.539Z,10.28
2024-02-07T20:59:45.042Z,10.15
2024-02-07T21:02:47.716Z,10.14
2024-02-07T21:05:55.051Z,10.16
2024-02-07T21:08:57.614Z,10.13
2024-02-07T21:12:00.534Z,10.07
2024-02-07T21:15:03.206Z,10.11
2024-02-07T21:18:06.359Z,10.14
2024-02-07T21:21:09.036Z,9.98
2024-02-07T21:24:11.121Z,9.98
2024-02-07T21:27:14.254Z,10.04
2024-02-07T21:30:19.734Z,9.96
2024-02-07T21:33:22.412Z,9.98
2024-02-07T21:36:24.891Z,9.89
2024-02-07T21:39:27.210Z,9.85
2024-02-07T21:42:30.293Z,9.94
2024-02-07T21:45:33.963Z,9.93
2024-02-07T21:48:36.471Z,9.98
2024-02-07T21:51:38.906Z,9.98
2024-02-07T21:54:42.494Z,9.96
2024-02-07T21:57:48.228Z,9.91
2024-02-07T22:00:51.968Z,10.00
2024-02-07T22:03:54.632Z,9.82
2024-02-07T22:06:57.357Z,9.67
2024-02-07T22:10:00.153Z,9.60
2024-02-07T22:13:03.208Z,9.58
2024-02-07T22:16:07.606Z,9.52
2024-02-07T22:19:10.527Z,9.42
2024-02-07T22:22:16.620Z,9.37
2024-02-07T22:28:37.839Z,9.41
2024-02-07T22:31:41.277Z,9.29
2024-02-07T22:34:46.279Z,9.35
2024-02-07T22:37:48.539Z,9.31
2024-02-07T22:40:50.911Z,9.21
2024-02-07T22:43:52.943Z,9.16
2024-02-07T22:46:56.303Z,9.16
2024-02-07T22:50:04.591Z,9.33
2024-02-07T22:53:07.686Z,9.15
2024-02-07T22:56:13.818Z,9.22
2024-02-07T22:59:22.059Z,9.36
2024-02-07T23:02:25.154Z,9.37
2024-02-07T23:05:27.688Z,9.30
2024-02-07T23:08:30.682Z,9.21
2024-02-07T23:11:39.274Z,9.00
2024-02-07T23:14:45.117Z,8.93
2024-02-07T23:17:48.227Z,8.84
2024-02-07T23:20:51.887Z,8.80
2024-02-07T23:23:54.642Z,8.70
2024-02-07T23:26:56.999Z,8.76
2024-02-07T23:29:59.584Z,8.90
2024-02-07T23:33:03.197Z,8.91
2024-02-07T23:36:06.334Z,8.78
2024-02-07T23:39:08.824Z,8.88
2024-02-07T23:42:21.599Z,8.93
2024-02-07T23:45:24.987Z,8.94
2024-02-07T23:48:28.750Z,8.64
2024-02-07T23:51:40.126Z,8.64
2024-02-07T23:54:47.812Z,8.58
2024-02-07T23:57:50.805Z,8.52
